メインページ
METAR-TAF:

METAR-TAF

空港 :

クウェート国際空港

クウェート, クウェート

緯度: 29-13N, 経度: 047-59E, 海抜: 55m

現時点の気象観測

当レポートは26分前の14:00(UTC)に作成
北/北西の風 22kt
気温 45°C
湿度 10%
気圧 995 hPa
視程: 3000m
晴天
風塵

METAR: OKBK 201400Z 34022KT 3000 BLDU SKC 45/07 Q0995 NOSIG

時間: 17:26 (14:26 UTC)

予報

当レポートは3時間41分前の10:45(UTC)に作成
予報は20日の 12時(UTC)から 21日の 18時(UTC)まで有効
北/北西の風 15kt、最大25ktの突風を伴う
視程: 7000m
晴天
20日の 12時(UTC)から 20日の 18時(UTC)まで一時的に
視程: 2000m
風塵
確率 30% :
20日の 12時(UTC)から 20日の 15時(UTC)まで一時的に
視程: 0500m
広範な塵

TAF: OKBK 201045Z 2012/2118 34015G25KT 7000 SKC TEMPO 2012/2018 2000 BLDU PROB30 TEMPO 2012/2015 0500 DU

4,000以上の空港の気象観測と天気予報(METAR報とTAF報)

利用可能な観測所は地図上に黄色い丸と赤い丸で示す。

丸の上にカーソルを重ねると観測所名を参照できる。

次にクリックすると気象観測と天気予報を参照できる。

マップの切り替え:黒色「×」印の緑ボタンをクリックして拡大、「-」印の緑ボタンをクリックして縮小、緑色の三角印をクリックして隣りの地図に切り替え


METAR-TAF: